sensor_id;sensor_type;location;lat;lon;timestamp;P1;durP1;ratioP1;P2;durP2;ratioP2
82038;SDS011;71610;42.628;23.378;2023-07-20T03:42:08;14.13;;;4.03;;
82038;SDS011;71610;42.628;23.378;2023-07-20T03:44:34;13.10;;;4.30;;
82038;SDS011;71610;42.628;23.378;2023-07-20T03:47:00;13.60;;;4.93;;
82038;SDS011;71610;42.628;23.378;2023-07-20T03:49:25;10.63;;;5.00;;
82038;SDS011;71610;42.628;23.378;2023-07-20T03:51:51;14.15;;;4.65;;
82038;SDS011;71610;42.628;23.378;2023-07-20T03:54:17;10.73;;;4.40;;
82038;SDS011;71610;42.628;23.378;2023-07-20T03:56:44;10.18;;;4.93;;
82038;SDS011;71610;42.628;23.378;2023-07-20T03:59:09;15.30;;;5.72;;
82038;SDS011;71610;42.628;23.378;2023-07-20T04:01:35;11.77;;;5.45;;
82038;SDS011;71610;42.628;23.378;2023-07-20T04:04:04;15.52;;;6.38;;
82038;SDS011;71610;42.628;23.378;2023-07-20T04:06:32;17.45;;;7.57;;
82038;SDS011;71610;42.628;23.378;2023-07-20T04:08:58;15.02;;;7.47;;
82038;SDS011;71610;42.628;23.378;2023-07-20T04:11:23;14.43;;;7.95;;
82038;SDS011;71610;42.628;23.378;2023-07-20T04:13:49;18.00;;;7.90;;
82038;SDS011;71610;42.628;23.378;2023-07-20T04:16:14;13.70;;;7.55;;
82038;SDS011;71610;42.628;23.378;2023-07-20T04:18:40;16.30;;;7.75;;
82038;SDS011;71610;42.628;23.378;2023-07-20T04:21:07;14.55;;;7.85;;
82038;SDS011;71610;42.628;23.378;2023-07-20T04:23:33;12.15;;;7.32;;
82038;SDS011;71610;42.628;23.378;2023-07-20T04:26:00;13.05;;;7.50;;
82038;SDS011;71610;42.628;23.378;2023-07-20T04:28:26;10.70;;;6.97;;
82038;SDS011;71610;42.628;23.378;2023-07-20T04:30:52;13.05;;;7.75;;
82038;SDS011;71610;42.628;23.378;2023-07-20T04:33:18;11.27;;;6.97;;
82038;SDS011;71610;42.628;23.378;2023-07-20T04:38:13;10.70;;;6.07;;
82038;SDS011;71610;42.628;23.378;2023-07-20T04:40:40;12.70;;;6.45;;
82038;SDS011;71610;42.628;23.378;2023-07-20T04:43:06;13.90;;;6.82;;
82038;SDS011;71610;42.628;23.378;2023-07-20T04:45:32;10.00;;;5.82;;
82038;SDS011;71610;42.628;23.378;2023-07-20T04:47:58;8.98;;;5.88;;
82038;SDS011;71610;42.628;23.378;2023-07-20T04:50:23;9.07;;;5.72;;
82038;SDS011;71610;42.628;23.378;2023-07-20T04:52:50;9.30;;;6.15;;
82038;SDS011;71610;42.628;23.378;2023-07-20T04:55:16;7.05;;;5.53;;
82038;SDS011;71610;42.628;23.378;2023-07-20T04:57:41;11.82;;;6.15;;
82038;SDS011;71610;42.628;23.378;2023-07-20T05:00:07;8.88;;;5.07;;
82038;SDS011;71610;42.628;23.378;2023-07-20T05:02:36;8.68;;;5.40;;
82038;SDS011;71610;42.628;23.378;2023-07-20T05:05:01;8.02;;;5.53;;
82038;SDS011;71610;42.628;23.378;2023-07-20T05:07:27;10.82;;;5.53;;
82038;SDS011;71610;42.628;23.378;2023-07-20T05:09:53;7.50;;;5.57;;
82038;SDS011;71610;42.628;23.378;2023-07-20T05:12:19;9.73;;;5.38;;
82038;SDS011;71610;42.628;23.378;2023-07-20T05:14:45;7.55;;;5.10;;
82038;SDS011;71610;42.628;23.378;2023-07-20T05:17:10;8.45;;;5.53;;
82038;SDS011;71610;42.628;23.378;2023-07-20T05:19:36;6.43;;;5.00;;
82038;SDS011;71610;42.628;23.378;2023-07-20T05:22:02;5.07;;;4.57;;
82038;SDS011;71610;42.628;23.378;2023-07-20T05:24:27;9.45;;;5.00;;
82038;SDS011;71610;42.628;23.378;2023-07-20T05:26:53;8.82;;;4.72;;
82038;SDS011;71610;42.628;23.378;2023-07-20T05:29:19;6.03;;;4.75;;
82038;SDS011;71610;42.628;23.378;2023-07-20T05:31:44;7.30;;;4.63;;
82038;SDS011;71610;42.628;23.378;2023-07-20T05:34:10;7.65;;;4.40;;
82038;SDS011;71610;42.628;23.378;2023-07-20T05:36:36;4.97;;;4.45;;
82038;SDS011;71610;42.628;23.378;2023-07-20T05:39:02;6.03;;;4.28;;
82038;SDS011;71610;42.628;23.378;2023-07-20T05:41:27;6.95;;;4.18;;
82038;SDS011;71610;42.628;23.378;2023-07-20T05:43:53;10.88;;;4.80;;
82038;SDS011;71610;42.628;23.378;2023-07-20T05:46:19;6.18;;;4.32;;
82038;SDS011;71610;42.628;23.378;2023-07-20T05:48:44;5.47;;;4.28;;
82038;SDS011;71610;42.628;23.378;2023-07-20T05:51:10;4.78;;;4.05;;
82038;SDS011;71610;42.628;23.378;2023-07-20T05:53:35;5.50;;;4.13;;
82038;SDS011;71610;42.628;23.378;2023-07-20T05:56:01;6.47;;;4.20;;
82038;SDS011;71610;42.628;23.378;2023-07-20T05:58:28;10.68;;;4.38;;
82038;SDS011;71610;42.628;23.378;2023-07-20T06:00:53;11.65;;;4.25;;
82038;SDS011;71610;42.628;23.378;2023-07-20T06:03:19;17.58;;;4.80;;
82038;SDS011;71610;42.628;23.378;2023-07-20T06:05:46;16.35;;;4.57;;
82038;SDS011;71610;42.628;23.378;2023-07-20T06:08:12;12.82;;;4.32;;
82038;SDS011;71610;42.628;23.378;2023-07-20T06:10:37;12.30;;;4.15;;
82038;SDS011;71610;42.628;23.378;2023-07-20T06:13:03;11.85;;;4.32;;
82038;SDS011;71610;42.628;23.378;2023-07-20T06:15:33;12.43;;;4.30;;
82038;SDS011;71610;42.628;23.378;2023-07-20T06:18:01;15.07;;;4.15;;
82038;SDS011;71610;42.628;23.378;2023-07-20T06:20:28;15.75;;;4.50;;
82038;SDS011;71610;42.628;23.378;2023-07-20T06:22:54;22.45;;;4.40;;
82038;SDS011;71610;42.628;23.378;2023-07-20T06:25:20;19.60;;;4.93;;
82038;SDS011;71610;42.628;23.378;2023-07-20T06:27:46;43.80;;;4.70;;
82038;SDS011;71610;42.628;23.378;2023-07-20T06:30:13;36.97;;;4.85;;
82038;SDS011;71610;42.628;23.378;2023-07-20T06:32:39;43.10;;;5.22;;
82038;SDS011;71610;42.628;23.378;2023-07-20T06:35:05;54.03;;;4.90;;
82038;SDS011;71610;42.628;23.378;2023-07-20T06:37:31;47.92;;;5.57;;
82038;SDS011;71610;42.628;23.378;2023-07-20T06:39:57;48.47;;;6.20;;
82038;SDS011;71610;42.628;23.378;2023-07-20T06:42:23;50.58;;;5.50;;
82038;SDS011;71610;42.628;23.378;2023-07-20T06:44:49;44.45;;;5.20;;
82038;SDS011;71610;42.628;23.378;2023-07-20T06:47:14;51.85;;;5.68;;
82038;SDS011;71610;42.628;23.378;2023-07-20T06:49:40;32.22;;;4.85;;
82038;SDS011;71610;42.628;23.378;2023-07-20T06:52:06;46.70;;;5.38;;
82038;SDS011;71610;42.628;23.378;2023-07-20T06:54:32;38.10;;;4.90;;
82038;SDS011;71610;42.628;23.378;2023-07-20T06:56:57;37.50;;;4.70;;
82038;SDS011;71610;42.628;23.378;2023-07-20T06:59:23;37.95;;;5.70;;
82038;SDS011;71610;42.628;23.378;2023-07-20T07:01:49;38.38;;;4.80;;
82038;SDS011;71610;42.628;23.378;2023-07-20T07:04:15;38.10;;;4.57;;
82038;SDS011;71610;42.628;23.378;2023-07-20T07:06:40;34.33;;;4.40;;
82038;SDS011;71610;42.628;23.378;2023-07-20T07:09:06;21.88;;;4.32;;
82038;SDS011;71610;42.628;23.378;2023-07-20T07:11:33;22.98;;;4.80;;
82038;SDS011;71610;42.628;23.378;2023-07-20T07:13:59;23.02;;;4.53;;
82038;SDS011;71610;42.628;23.378;2023-07-20T07:16:24;29.70;;;4.80;;
82038;SDS011;71610;42.628;23.378;2023-07-20T07:18:50;24.15;;;4.35;;
82038;SDS011;71610;42.628;23.378;2023-07-20T07:21:16;26.05;;;4.60;;
82038;SDS011;71610;42.628;23.378;2023-07-20T07:23:42;13.05;;;3.90;;
82038;SDS011;71610;42.628;23.378;2023-07-20T07:26:11;16.15;;;4.05;;
82038;SDS011;71610;42.628;23.378;2023-07-20T07:28:37;22.63;;;4.10;;
82038;SDS011;71610;42.628;23.378;2023-07-20T07:31:05;15.15;;;3.97;;
82038;SDS011;71610;42.628;23.378;2023-07-20T07:33:32;13.00;;;4.07;;
82038;SDS011;71610;42.628;23.378;2023-07-20T07:35:57;18.73;;;3.70;;
82038;SDS011;71610;42.628;23.378;2023-07-20T07:38:23;12.65;;;3.95;;
82038;SDS011;71610;42.628;23.378;2023-07-20T07:40:49;8.73;;;3.65;;
82038;SDS011;71610;42.628;23.378;2023-07-20T07:43:14;10.27;;;3.95;;
82038;SDS011;71610;42.628;23.378;2023-07-20T07:45:40;11.70;;;4.10;;
82038;SDS011;71610;42.628;23.378;2023-07-20T07:48:06;8.02;;;3.50;;
82038;SDS011;71610;42.628;23.378;2023-07-20T07:50:33;14.20;;;3.97;;
82038;SDS011;71610;42.628;23.378;2023-07-20T07:52:59;14.43;;;4.10;;
82038;SDS011;71610;42.628;23.378;2023-07-20T07:55:25;7.03;;;3.30;;
82038;SDS011;71610;42.628;23.378;2023-07-20T07:57:54;7.60;;;2.97;;
82038;SDS011;71610;42.628;23.378;2023-07-20T08:00:19;13.02;;;3.67;;
82038;SDS011;71610;42.628;23.378;2023-07-20T08:02:45;15.40;;;3.67;;
82038;SDS011;71610;42.628;23.378;2023-07-20T08:05:13;11.88;;;3.63;;
82038;SDS011;71610;42.628;23.378;2023-07-20T08:07:39;12.00;;;3.65;;
82038;SDS011;71610;42.628;23.378;2023-07-20T08:10:04;8.93;;;3.45;;
82038;SDS011;71610;42.628;23.378;2023-07-20T08:12:31;8.95;;;3.40;;
82038;SDS011;71610;42.628;23.378;2023-07-20T08:14:57;9.73;;;3.17;;
82038;SDS011;71610;42.628;23.378;2023-07-20T08:17:22;13.90;;;4.25;;
82038;SDS011;71610;42.628;23.378;2023-07-20T08:19:48;31.75;;;4.50;;
82038;SDS011;71610;42.628;23.378;2023-07-20T08:22:14;24.40;;;4.70;;
82038;SDS011;71610;42.628;23.378;2023-07-20T08:24:40;29.73;;;4.25;;
82038;SDS011;71610;42.628;23.378;2023-07-20T08:27:07;27.55;;;5.25;;
82038;SDS011;71610;42.628;23.378;2023-07-20T08:29:33;31.73;;;4.88;;
82038;SDS011;71610;42.628;23.378;2023-07-20T08:32:02;22.88;;;4.63;;
82038;SDS011;71610;42.628;23.378;2023-07-20T08:34:29;28.05;;;4.93;;
82038;SDS011;71610;42.628;23.378;2023-07-20T08:36:55;29.67;;;5.35;;
82038;SDS011;71610;42.628;23.378;2023-07-20T08:39:21;23.50;;;4.40;;
82038;SDS011;71610;42.628;23.378;2023-07-20T08:41:48;27.23;;;4.63;;
82038;SDS011;71610;42.628;23.378;2023-07-20T08:44:14;36.45;;;5.10;;
82038;SDS011;71610;42.628;23.378;2023-07-20T08:46:40;29.75;;;4.68;;
82038;SDS011;71610;42.628;23.378;2023-07-20T08:49:06;17.38;;;4.47;;
82038;SDS011;71610;42.628;23.378;2023-07-20T08:51:32;23.27;;;4.60;;
82038;SDS011;71610;42.628;23.378;2023-07-20T08:54:01;29.80;;;4.75;;
82038;SDS011;71610;42.628;23.378;2023-07-20T08:56:27;29.83;;;4.47;;
82038;SDS011;71610;42.628;23.378;2023-07-20T08:58:56;43.97;;;5.10;;
82038;SDS011;71610;42.628;23.378;2023-07-20T09:01:22;25.02;;;4.70;;
82038;SDS011;71610;42.628;23.378;2023-07-20T09:03:48;35.20;;;5.13;;
82038;SDS011;71610;42.628;23.378;2023-07-20T09:06:15;31.35;;;4.60;;
82038;SDS011;71610;42.628;23.378;2023-07-20T09:08:41;41.00;;;5.03;;
82038;SDS011;71610;42.628;23.378;2023-07-20T09:11:07;47.38;;;5.35;;
82038;SDS011;71610;42.628;23.378;2023-07-20T09:13:37;35.05;;;4.85;;
82038;SDS011;71610;42.628;23.378;2023-07-20T09:16:02;29.70;;;4.43;;
82038;SDS011;71610;42.628;23.378;2023-07-20T09:18:30;46.90;;;5.32;;
82038;SDS011;71610;42.628;23.378;2023-07-20T09:21:03;83.38;;;6.38;;
82038;SDS011;71610;42.628;23.378;2023-07-20T09:23:31;48.92;;;5.03;;
82038;SDS011;71610;42.628;23.378;2023-07-20T09:26:04;28.48;;;4.65;;
82038;SDS011;71610;42.628;23.378;2023-07-20T09:28:48;55.88;;;6.32;;
82038;SDS011;71610;42.628;23.378;2023-07-20T09:31:22;49.63;;;5.60;;
82038;SDS011;71610;42.628;23.378;2023-07-20T09:33:48;43.10;;;6.72;;
82038;SDS011;71610;42.628;23.378;2023-07-20T09:36:14;35.22;;;5.30;;
82038;SDS011;71610;42.628;23.378;2023-07-20T09:38:43;49.42;;;6.47;;
82038;SDS011;71610;42.628;23.378;2023-07-20T09:41:15;34.13;;;5.97;;
82038;SDS011;71610;42.628;23.378;2023-07-20T09:43:43;45.67;;;6.20;;
82038;SDS011;71610;42.628;23.378;2023-07-20T09:46:10;45.88;;;5.75;;
82038;SDS011;71610;42.628;23.378;2023-07-20T09:48:36;35.63;;;5.80;;
82038;SDS011;71610;42.628;23.378;2023-07-20T09:51:01;31.05;;;5.18;;
82038;SDS011;71610;42.628;23.378;2023-07-20T09:53:28;27.63;;;4.82;;
82038;SDS011;71610;42.628;23.378;2023-07-20T09:55:55;39.15;;;5.60;;
82038;SDS011;71610;42.628;23.378;2023-07-20T09:58:21;24.08;;;4.75;;
82038;SDS011;71610;42.628;23.378;2023-07-20T10:00:48;28.02;;;4.80;;
82038;SDS011;71610;42.628;23.378;2023-07-20T10:03:21;20.40;;;5.00;;
82038;SDS011;71610;42.628;23.378;2023-07-20T10:05:48;32.53;;;5.05;;
82038;SDS011;71610;42.628;23.378;2023-07-20T10:08:23;26.30;;;4.75;;
82038;SDS011;71610;42.628;23.378;2023-07-20T10:10:50;21.90;;;4.28;;
82038;SDS011;71610;42.628;23.378;2023-07-20T10:13:21;24.00;;;4.00;;
82038;SDS011;71610;42.628;23.378;2023-07-20T10:16:03;26.25;;;4.45;;
82038;SDS011;71610;42.628;23.378;2023-07-20T10:21:13;25.10;;;4.32;;
82038;SDS011;71610;42.628;23.378;2023-07-20T10:23:42;25.23;;;4.43;;
82038;SDS011;71610;42.628;23.378;2023-07-20T10:26:08;23.23;;;4.28;;
82038;SDS011;71610;42.628;23.378;2023-07-20T10:28:35;20.23;;;4.50;;
82038;SDS011;71610;42.628;23.378;2023-07-20T10:31:02;20.10;;;4.47;;
82038;SDS011;71610;42.628;23.378;2023-07-20T10:33:28;22.38;;;3.80;;
82038;SDS011;71610;42.628;23.378;2023-07-20T10:36:00;18.38;;;3.78;;
82038;SDS011;71610;42.628;23.378;2023-07-20T10:41:57;22.67;;;4.20;;
82038;SDS011;71610;42.628;23.378;2023-07-20T10:44:06;26.65;;;4.00;;
82038;SDS011;71610;42.628;23.378;2023-07-20T10:49:08;17.23;;;3.20;;
82038;SDS011;71610;42.628;23.378;2023-07-20T10:51:44;21.75;;;4.10;;
82038;SDS011;71610;42.628;23.378;2023-07-20T10:56:43;13.30;;;3.78;;
82038;SDS011;71610;42.628;23.378;2023-07-20T11:01:56;15.00;;;3.63;;
82038;SDS011;71610;42.628;23.378;2023-07-20T11:04:41;10.15;;;3.30;;
82038;SDS011;71610;42.628;23.378;2023-07-20T11:07:08;12.55;;;3.80;;
82038;SDS011;71610;42.628;23.378;2023-07-20T11:09:34;14.50;;;4.00;;
82038;SDS011;71610;42.628;23.378;2023-07-20T11:12:10;9.50;;;3.30;;
82038;SDS011;71610;42.628;23.378;2023-07-20T11:14:43;8.57;;;3.45;;
82038;SDS011;71610;42.628;23.378;2023-07-20T11:17:19;14.57;;;3.63;;
82038;SDS011;71610;42.628;23.378;2023-07-20T11:19:50;15.65;;;3.78;;
82038;SDS011;71610;42.628;23.378;2023-07-20T11:22:21;14.27;;;3.88;;
82038;SDS011;71610;42.628;23.378;2023-07-20T11:24:47;15.45;;;3.80;;
82038;SDS011;71610;42.628;23.378;2023-07-20T11:27:14;14.85;;;3.65;;
82038;SDS011;71610;42.628;23.378;2023-07-20T11:29:40;10.25;;;3.13;;
82038;SDS011;71610;42.628;23.378;2023-07-20T11:32:06;10.07;;;3.42;;
